Time;durP1;ratioP1;P1;durP2;ratioP2;P2;SDS_P1;SDS_P2;PMS_P1;PMS_P2;Temp;Humidity;BMP_temperature;BMP_pressure;BME280_temperature;BME280_humidity;BME280_pressure;Samples;Min_cycle;Max_cycle;Signal;HPM_P1;HPM_P2
2023/12/14 00:01:17;;;;;;;13.15;5.53;;;6.30;99.90;;;;;;4985249;28;20177;-61
2023/12/14 00:03:45;;;;;;;11.13;5.68;;;6.30;99.90;;;;;;4981432;28;20050;-62
2023/12/14 00:06:11;;;;;;;12.95;6.03;;;6.30;99.90;;;;;;4967851;28;20042;-61
2023/12/14 00:08:37;;;;;;;13.77;6.70;;;6.30;99.90;;;;;;4986760;28;20051;-62
2023/12/14 00:11:07;;;;;;;10.75;6.32;;;6.30;99.90;;;;;;4979467;28;20061;-61
2023/12/14 00:13:33;;;;;;;12.77;6.25;;;6.30;99.90;;;;;;4963920;28;20050;-61
2023/12/14 00:15:59;;;;;;;15.93;6.80;;;6.30;99.90;;;;;;4983317;28;20053;-62
2023/12/14 00:18:25;;;;;;;14.50;6.78;;;6.20;99.90;;;;;;4958303;28;20038;-61
2023/12/14 00:20:52;;;;;;;11.32;7.38;;;6.20;99.90;;;;;;4983614;28;20129;-62
2023/12/14 00:23:18;;;;;;;11.90;6.30;;;6.30;99.90;;;;;;4984951;28;20042;-61
2023/12/14 00:25:44;;;;;;;15.50;6.60;;;6.20;99.90;;;;;;4983865;28;20145;-61
2023/12/14 00:28:09;;;;;;;12.27;6.70;;;6.20;99.90;;;;;;4985210;28;20070;-62
2023/12/14 00:30:35;;;;;;;11.73;6.47;;;6.20;99.90;;;;;;4984797;28;20121;-62
2023/12/14 00:33:01;;;;;;;11.45;7.40;;;6.20;99.90;;;;;;4984570;28;20445;-62
2023/12/14 00:35:27;;;;;;;11.25;6.55;;;6.20;99.90;;;;;;4967659;28;20049;-61
2023/12/14 00:37:52;;;;;;;13.40;6.07;;;6.20;99.90;;;;;;4969299;28;20042;-62
2023/12/14 00:40:18;;;;;;;16.38;6.72;;;6.20;99.90;;;;;;4968489;28;20133;-61
2023/12/14 00:42:44;;;;;;;10.02;5.55;;;6.20;99.90;;;;;;4970024;28;20469;-61
2023/12/14 00:45:10;;;;;;;12.27;6.25;;;6.20;99.90;;;;;;4988087;28;20502;-62
2023/12/14 00:47:35;;;;;;;8.35;5.40;;;6.20;99.90;;;;;;4985715;28;20052;-62
2023/12/14 00:50:02;;;;;;;7.15;4.88;;;6.10;99.90;;;;;;4981820;28;20130;-61
2023/12/14 00:52:28;;;;;;;7.68;4.88;;;6.10;99.90;;;;;;4963627;28;20121;-61
2023/12/14 00:54:53;;;;;;;9.13;5.47;;;6.10;99.90;;;;;;4982951;28;20454;-61
2023/12/14 00:57:19;;;;;;;7.47;5.07;;;6.10;99.90;;;;;;4968392;28;20128;-61
2023/12/14 00:59:45;;;;;;;10.00;5.45;;;6.10;99.90;;;;;;4982194;28;20422;-61
2023/12/14 01:02:11;;;;;;;8.00;5.57;;;6.10;99.90;;;;;;4981499;28;20053;-61
2023/12/14 01:04:36;;;;;;;8.68;5.18;;;6.10;99.90;;;;;;4981983;28;20133;-61
2023/12/14 01:07:03;;;;;;;10.65;6.43;;;6.10;99.90;;;;;;4986292;28;20133;-61
2023/12/14 01:09:28;;;;;;;8.80;5.70;;;6.10;99.90;;;;;;4980784;28;20642;-61
2023/12/14 01:11:54;;;;;;;11.27;6.35;;;6.10;99.90;;;;;;4965216;28;20046;-61
2023/12/14 01:14:20;;;;;;;12.38;7.00;;;6.10;99.90;;;;;;4984239;28;20636;-61
2023/12/14 01:16:45;;;;;;;10.23;6.65;;;6.10;99.90;;;;;;4981633;28;20069;-61
2023/12/14 01:19:11;;;;;;;7.10;5.00;;;6.10;99.90;;;;;;4971608;28;20084;-61
2023/12/14 01:21:37;;;;;;;7.18;4.70;;;6.10;99.90;;;;;;4963895;28;20537;-62
2023/12/14 01:24:02;;;;;;;7.47;4.50;;;6.00;99.90;;;;;;4983236;28;20093;-62
2023/12/14 01:26:28;;;;;;;10.95;5.72;;;6.00;99.90;;;;;;4979274;28;20057;-61
2023/12/14 01:28:54;;;;;;;6.82;5.05;;;6.00;99.90;;;;;;4966042;28;20042;-61
2023/12/14 01:31:23;;;;;;;7.85;5.65;;;6.00;99.90;;;;;;4984270;28;20576;-62
2023/12/14 01:33:49;;;;;;;12.07;7.03;;;6.00;99.90;;;;;;4963928;28;20070;-61
2023/12/14 01:36:26;;;;;;;8.40;5.68;;;6.00;99.90;;;;;;4953186;28;20122;-61
2023/12/14 01:38:52;;;;;;;10.70;5.30;;;6.00;99.90;;;;;;4982151;28;20046;-62
2023/12/14 01:41:18;;;;;;;9.70;5.20;;;6.00;99.90;;;;;;4963908;28;20541;-62
2023/12/14 01:43:44;;;;;;;9.20;5.97;;;6.00;99.90;;;;;;4977344;28;20161;-61
2023/12/14 01:46:10;;;;;;;10.52;6.25;;;6.00;99.90;;;;;;4967437;28;20112;-61
2023/12/14 01:48:36;;;;;;;11.23;6.78;;;6.00;99.90;;;;;;4984314;28;20520;-61
2023/12/14 01:51:02;;;;;;;11.82;5.80;;;6.00;99.90;;;;;;4985547;28;20074;-61
2023/12/14 01:53:31;;;;;;;8.23;5.57;;;6.00;99.90;;;;;;4977695;28;20050;-61
2023/12/14 01:55:57;;;;;;;8.73;5.88;;;6.00;99.90;;;;;;4981843;28;20065;-61
2023/12/14 01:58:23;;;;;;;10.30;6.45;;;6.00;99.90;;;;;;4979634;28;20043;-62
2023/12/14 02:01:03;;;;;;;11.45;7.10;;;6.00;99.90;;;;;;4983817;28;20046;-62
2023/12/14 02:03:29;;;;;;;10.25;6.90;;;6.00;99.90;;;;;;4982106;28;20081;-62
2023/12/14 02:05:55;;;;;;;9.20;6.45;;;6.00;99.90;;;;;;4980118;28;20149;-61
2023/12/14 02:08:21;;;;;;;14.43;6.82;;;6.00;99.90;;;;;;4964815;28;20042;-61
2023/12/14 02:10:48;;;;;;;12.35;7.07;;;6.00;99.90;;;;;;4981486;28;20117;-61
2023/12/14 02:13:13;;;;;;;13.00;7.22;;;6.00;99.90;;;;;;4983194;28;20057;-62
2023/12/14 02:15:39;;;;;;;10.77;6.50;;;6.10;99.90;;;;;;4978323;28;20046;-61
2023/12/14 02:18:05;;;;;;;10.25;5.82;;;6.10;99.90;;;;;;4976777;28;20188;-62
2023/12/14 02:20:30;;;;;;;9.23;5.45;;;6.00;99.90;;;;;;4980874;28;20049;-62
2023/12/14 02:22:56;;;;;;;10.52;5.72;;;6.00;99.90;;;;;;4979542;28;20065;-62
2023/12/14 02:25:23;;;;;;;11.35;6.00;;;6.00;99.90;;;;;;4976814;28;20042;-61
2023/12/14 02:27:51;;;;;;;10.23;5.88;;;6.00;99.90;;;;;;4982339;28;20094;-61
2023/12/14 02:30:17;;;;;;;12.63;5.65;;;6.00;99.90;;;;;;4982179;28;20050;-61
2023/12/14 02:32:43;;;;;;;11.38;6.18;;;6.00;99.90;;;;;;4983305;28;20105;-61
2023/12/14 02:35:09;;;;;;;8.82;6.13;;;6.00;99.90;;;;;;4948270;28;20042;-62
2023/12/14 02:37:40;;;;;;;8.82;5.60;;;6.00;99.90;;;;;;4972758;28;20121;-61
2023/12/14 02:40:07;;;;;;;11.55;6.20;;;6.00;99.90;;;;;;4982273;28;20371;-62
2023/12/14 02:42:33;;;;;;;10.13;6.85;;;6.00;99.90;;;;;;4958668;28;20038;-61
2023/12/14 02:44:59;;;;;;;8.98;5.22;;;6.00;99.90;;;;;;4981670;28;20034;-61
2023/12/14 02:47:24;;;;;;;10.15;5.82;;;6.00;99.90;;;;;;4977939;28;20516;-61
2023/12/14 02:49:50;;;;;;;8.90;5.47;;;6.00;99.90;;;;;;4981090;28;20054;-62
2023/12/14 02:52:16;;;;;;;14.57;8.18;;;6.00;99.90;;;;;;4965018;28;20093;-62
2023/12/14 02:54:41;;;;;;;9.82;6.78;;;6.00;99.90;;;;;;4945953;28;20049;-62
2023/12/14 02:57:07;;;;;;;11.45;6.38;;;6.00;99.90;;;;;;4979613;28;20081;-62
2023/12/14 02:59:33;;;;;;;13.40;5.97;;;6.00;99.90;;;;;;4984608;28;20568;-61
2023/12/14 03:01:59;;;;;;;14.80;5.97;;;6.00;99.90;;;;;;4982936;28;20049;-62
2023/12/14 03:04:25;;;;;;;15.27;6.82;;;6.10;99.90;;;;;;4997385;28;20104;-62
2023/12/14 03:06:51;;;;;;;12.15;6.82;;;6.10;99.90;;;;;;4979506;28;20042;-61
2023/12/14 03:09:18;;;;;;;14.00;7.72;;;6.10;99.90;;;;;;4963540;28;20085;-62
2023/12/14 03:11:44;;;;;;;16.58;7.20;;;6.10;99.90;;;;;;4965381;28;20502;-61
2023/12/14 03:14:10;;;;;;;16.33;7.60;;;6.10;99.90;;;;;;4981488;28;20034;-62
2023/12/14 03:16:36;;;;;;;16.45;8.48;;;6.10;99.90;;;;;;4983812;28;20040;-61
2023/12/14 03:19:03;;;;;;;15.38;7.57;;;6.10;99.90;;;;;;4985201;28;20448;-62
2023/12/14 03:21:29;;;;;;;14.18;7.13;;;6.10;99.90;;;;;;4985432;28;20685;-62
2023/12/14 03:23:55;;;;;;;12.00;7.25;;;6.10;99.90;;;;;;4984408;28;20050;-62
2023/12/14 03:26:20;;;;;;;15.48;6.93;;;6.10;99.90;;;;;;4970234;28;20060;-62
2023/12/14 03:28:46;;;;;;;20.20;7.45;;;6.10;99.90;;;;;;4981432;28;20085;-62
2023/12/14 03:31:15;;;;;;;17.80;7.78;;;6.20;99.90;;;;;;4984266;28;20129;-62
2023/12/14 03:33:42;;;;;;;16.90;6.90;;;6.10;99.90;;;;;;4968377;28;20140;-61
2023/12/14 03:36:08;;;;;;;18.08;7.18;;;6.10;99.90;;;;;;4966304;28;20106;-62
2023/12/14 03:38:34;;;;;;;16.42;7.43;;;6.10;99.90;;;;;;4968214;28;20117;-62
2023/12/14 03:41:00;;;;;;;17.65;8.13;;;6.10;99.90;;;;;;4985030;28;20042;-61
2023/12/14 03:43:26;;;;;;;19.63;8.32;;;6.10;99.90;;;;;;4980579;28;20050;-62
2023/12/14 03:45:52;;;;;;;18.77;8.90;;;6.10;99.90;;;;;;4986182;28;20044;-61
2023/12/14 03:48:18;;;;;;;20.65;8.10;;;6.10;99.90;;;;;;4985776;28;20597;-61
2023/12/14 03:50:43;;;;;;;19.58;8.45;;;6.10;99.90;;;;;;4983914;28;20046;-61
2023/12/14 03:53:09;;;;;;;17.02;8.23;;;6.10;99.90;;;;;;4995040;28;20040;-61
2023/12/14 03:55:35;;;;;;;14.18;8.48;;;6.10;99.90;;;;;;4982492;28;20038;-61
2023/12/14 03:58:01;;;;;;;18.13;8.02;;;6.10;99.90;;;;;;4986489;28;20080;-61
2023/12/14 04:00:27;;;;;;;15.55;8.35;;;6.10;99.90;;;;;;4985977;28;20105;-61
2023/12/14 04:02:52;;;;;;;15.25;7.40;;;6.10;99.90;;;;;;4965678;28;20421;-61
2023/12/14 04:05:18;;;;;;;19.48;8.38;;;6.20;99.90;;;;;;4987501;28;20042;-61
2023/12/14 04:07:44;;;;;;;19.83;8.82;;;6.10;99.90;;;;;;4984173;28;20039;-61
2023/12/14 04:10:11;;;;;;;12.77;7.65;;;6.20;99.90;;;;;;4982287;28;20793;-61
2023/12/14 04:12:38;;;;;;;16.83;7.70;;;6.10;99.90;;;;;;4977440;28;20042;-60
2023/12/14 04:15:05;;;;;;;16.17;8.00;;;6.10;99.90;;;;;;4965689;28;20134;-61
2023/12/14 04:17:31;;;;;;;19.63;9.05;;;6.10;99.90;;;;;;4984791;28;20437;-61
2023/12/14 04:19:58;;;;;;;19.17;9.02;;;6.10;99.90;;;;;;4970357;28;20121;-61
2023/12/14 04:22:23;;;;;;;18.02;9.15;;;6.10;99.90;;;;;;4984370;28;20042;-61
2023/12/14 04:24:50;;;;;;;19.63;8.45;;;6.10;99.90;;;;;;4981585;28;20053;-61
2023/12/14 04:30:44;;;;;;;22.38;8.43;;;6.10;99.90;;;;;;4978604;28;20042;-61
2023/12/14 04:33:11;;;;;;;21.17;10.00;;;6.10;99.90;;;;;;4979182;28;20068;-61
2023/12/14 04:35:37;;;;;;;20.92;10.35;;;6.10;99.90;;;;;;4981202;28;20042;-61
2023/12/14 04:38:02;;;;;;;21.88;9.25;;;6.10;99.90;;;;;;4982586;28;20037;-62
2023/12/14 04:40:28;;;;;;;19.70;10.05;;;6.10;99.90;;;;;;4962881;28;20458;-61
2023/12/14 04:42:54;;;;;;;21.10;9.60;;;6.10;99.90;;;;;;4986176;28;20101;-62
2023/12/14 04:45:19;;;;;;;17.45;9.63;;;6.20;99.90;;;;;;4981151;28;20034;-61
2023/12/14 04:47:45;;;;;;;19.95;9.23;;;6.10;99.90;;;;;;4984146;28;20108;-61
2023/12/14 04:50:11;;;;;;;19.08;8.90;;;6.10;99.90;;;;;;4965868;28;20039;-61
2023/12/14 04:52:37;;;;;;;16.40;9.30;;;6.10;99.90;;;;;;4981917;28;20086;-62
2023/12/14 04:55:03;;;;;;;16.83;9.02;;;6.10;99.90;;;;;;4984779;28;20081;-62
2023/12/14 04:57:29;;;;;;;19.90;9.32;;;6.10;99.90;;;;;;4985147;28;20038;-62
2023/12/14 04:59:54;;;;;;;18.38;8.23;;;6.10;99.90;;;;;;4966991;28;20081;-62
2023/12/14 05:02:20;;;;;;;18.45;8.55;;;6.10;99.90;;;;;;4985863;28;20050;-61
2023/12/14 05:04:46;;;;;;;15.90;8.77;;;6.10;99.90;;;;;;4963737;28;20053;-61
2023/12/14 05:07:11;;;;;;;17.75;8.88;;;6.10;99.90;;;;;;4984093;28;20049;-61
2023/12/14 05:09:37;;;;;;;19.02;9.40;;;6.10;99.90;;;;;;4976497;28;20050;-62
2023/12/14 05:12:03;;;;;;;12.35;8.27;;;6.10;99.90;;;;;;4968445;28;20038;-61
2023/12/14 05:14:29;;;;;;;19.00;9.30;;;6.10;99.90;;;;;;4965629;28;20050;-61
2023/12/14 05:16:55;;;;;;;21.70;8.80;;;6.10;99.90;;;;;;4981296;28;20038;-61
2023/12/14 05:19:21;;;;;;;19.33;8.88;;;6.10;99.90;;;;;;4950521;28;20576;-61
2023/12/14 05:21:47;;;;;;;18.15;9.10;;;6.10;99.90;;;;;;4982714;28;20077;-61
2023/12/14 05:24:12;;;;;;;18.58;8.25;;;6.10;99.90;;;;;;4970333;28;20256;-62
2023/12/14 05:26:38;;;;;;;18.80;9.05;;;6.10;99.90;;;;;;4963000;28;20049;-61
2023/12/14 05:29:04;;;;;;;19.35;8.48;;;6.10;99.90;;;;;;4982419;28;20049;-62
2023/12/14 05:31:29;;;;;;;17.48;8.98;;;6.10;99.90;;;;;;4983707;28;20539;-61
2023/12/14 05:33:55;;;;;;;19.65;10.10;;;6.20;99.90;;;;;;4997387;28;20045;-62
2023/12/14 05:36:21;;;;;;;16.60;9.10;;;6.10;99.90;;;;;;4964621;28;20481;-62
2023/12/14 05:38:46;;;;;;;14.10;7.97;;;6.20;99.90;;;;;;4979538;28;20129;-61
2023/12/14 05:41:12;;;;;;;19.50;8.55;;;6.10;99.90;;;;;;4977790;28;20081;-61
2023/12/14 05:43:38;;;;;;;19.55;10.55;;;6.10;99.90;;;;;;4981746;28;20051;-61
2023/12/14 05:46:04;;;;;;;18.85;9.48;;;6.10;99.90;;;;;;4951459;28;20133;-62
2023/12/14 05:48:29;;;;;;;20.02;10.50;;;6.10;99.90;;;;;;4981337;28;20042;-61
2023/12/14 05:50:56;;;;;;;22.50;9.13;;;6.10;99.90;;;;;;4978274;28;20404;-61
2023/12/14 05:53:22;;;;;;;19.83;10.10;;;6.10;99.90;;;;;;4965679;28;20061;-61
2023/12/14 05:55:48;;;;;;;23.38;10.75;;;6.10;99.90;;;;;;4984657;28;20460;-61
2023/12/14 05:58:14;;;;;;;23.05;10.25;;;6.20;99.90;;;;;;4980476;28;20073;-61
2023/12/14 06:00:40;;;;;;;22.75;9.88;;;6.10;99.90;;;;;;4984056;28;20049;-60
2023/12/14 06:03:06;;;;;;;19.52;10.30;;;6.10;99.90;;;;;;4969089;28;20149;-62
2023/12/14 06:05:31;;;;;;;21.13;9.85;;;6.10;99.90;;;;;;4965737;28;20446;-61
2023/12/14 06:07:57;;;;;;;17.58;9.23;;;6.10;99.90;;;;;;4966773;28;20154;-61
2023/12/14 06:10:23;;;;;;;20.80;9.07;;;6.10;99.90;;;;;;4981833;28;20050;-61
2023/12/14 06:12:48;;;;;;;19.45;9.13;;;6.10;99.90;;;;;;4967434;28;20046;-61
2023/12/14 06:15:14;;;;;;;23.45;10.43;;;6.10;99.90;;;;;;4982707;28;20041;-62
2023/12/14 06:17:42;;;;;;;24.90;10.18;;;6.10;99.90;;;;;;4984276;28;20104;-62
2023/12/14 06:20:08;;;;;;;24.60;9.77;;;6.10;99.90;;;;;;4981476;28;20042;-62
2023/12/14 06:22:36;;;;;;;23.25;9.95;;;6.10;99.90;;;;;;4983222;28;20433;-62
2023/12/14 06:25:03;;;;;;;25.30;10.40;;;6.10;99.90;;;;;;4965420;28;20097;-61
2023/12/14 06:27:29;;;;;;;17.95;11.40;;;6.10;99.90;;;;;;4968035;28;20050;-61
2023/12/14 06:29:55;;;;;;;23.02;11.60;;;6.20;99.90;;;;;;4980750;28;20034;-61
2023/12/14 06:32:20;;;;;;;22.25;10.95;;;6.10;99.90;;;;;;4949520;28;20105;-61
2023/12/14 06:34:46;;;;;;;18.17;9.55;;;6.20;99.90;;;;;;4982462;28;20047;-61
2023/12/14 06:37:12;;;;;;;24.85;9.93;;;6.10;99.90;;;;;;4981926;28;20046;-61
2023/12/14 06:39:37;;;;;;;17.42;9.55;;;6.20;99.90;;;;;;4977487;28;20140;-62
2023/12/14 06:42:04;;;;;;;21.67;9.77;;;6.10;99.90;;;;;;4978513;28;20034;-61
2023/12/14 06:44:31;;;;;;;15.43;9.20;;;6.20;99.90;;;;;;4960816;28;20061;-62
2023/12/14 06:46:58;;;;;;;15.95;9.07;;;6.20;99.90;;;;;;4983145;28;20050;-61
2023/12/14 06:49:24;;;;;;;15.93;9.48;;;6.20;99.90;;;;;;4944774;28;20039;-61
2023/12/14 06:51:50;;;;;;;18.63;9.27;;;6.20;99.90;;;;;;4980029;28;20043;-62
2023/12/14 06:54:16;;;;;;;19.88;9.90;;;6.20;99.90;;;;;;4966714;28;20045;-62
2023/12/14 06:56:42;;;;;;;15.13;9.02;;;6.20;99.90;;;;;;4979763;28;20038;-61
2023/12/14 06:59:07;;;;;;;19.50;9.43;;;6.20;99.90;;;;;;4977313;28;20030;-61
2023/12/14 07:01:33;;;;;;;18.85;10.38;;;6.20;99.90;;;;;;4981018;28;20041;-61
2023/12/14 07:03:59;;;;;;;20.77;9.82;;;6.20;99.90;;;;;;4981832;28;20043;-61
2023/12/14 07:06:24;;;;;;;14.57;8.50;;;6.20;99.90;;;;;;4977282;28;20428;-61
2023/12/14 07:08:50;;;;;;;19.92;9.60;;;6.20;99.90;;;;;;4964804;28;20059;-61
2023/12/14 07:11:17;;;;;;;17.35;8.98;;;6.20;99.90;;;;;;4981406;28;20050;-61
2023/12/14 07:13:43;;;;;;;14.05;8.32;;;6.20;99.90;;;;;;4965377;28;20053;-61
2023/12/14 07:16:10;;;;;;;15.82;9.00;;;6.10;99.90;;;;;;4977608;28;20042;-61
2023/12/14 07:18:41;;;;;;;20.77;10.40;;;6.10;99.90;;;;;;4967202;28;20046;-61
2023/12/14 07:21:08;;;;;;;17.90;10.40;;;6.10;99.90;;;;;;4982081;28;20145;-61
2023/12/14 07:23:35;;;;;;;19.77;10.25;;;6.10;99.90;;;;;;4966802;28;20340;-61
2023/12/14 07:26:01;;;;;;;22.52;11.88;;;6.20;99.90;;;;;;4980061;28;20054;-62
2023/12/14 07:28:30;;;;;;;16.35;8.65;;;6.20;99.90;;;;;;4963295;28;20145;-61
2023/12/14 07:30:56;;;;;;;20.63;9.60;;;6.20;99.90;;;;;;4966261;28;20034;-61
2023/12/14 07:33:21;;;;;;;14.65;7.40;;;6.20;99.90;;;;;;4982120;28;20502;-61
2023/12/14 07:35:47;;;;;;;17.95;9.07;;;6.20;99.90;;;;;;4966405;28;20141;-62
2023/12/14 07:38:13;;;;;;;14.38;8.32;;;6.20;99.90;;;;;;4984255;28;20316;-62
2023/12/14 07:40:40;;;;;;;15.73;8.93;;;6.20;99.90;;;;;;4977464;28;20451;-62
2023/12/14 07:43:06;;;;;;;16.63;8.30;;;6.20;99.90;;;;;;4964752;28;20058;-61
2023/12/14 07:45:31;;;;;;;23.15;9.70;;;6.20;99.90;;;;;;4964863;28;20047;-62
2023/12/14 07:47:57;;;;;;;22.73;9.38;;;6.20;99.90;;;;;;4982205;28;20049;-61
2023/12/14 07:50:23;;;;;;;21.27;8.85;;;6.20;99.90;;;;;;4966989;28;20053;-62
2023/12/14 07:52:49;;;;;;;22.52;10.20;;;6.20;99.90;;;;;;4966068;28;20034;-62
2023/12/14 07:55:15;;;;;;;23.98;9.02;;;6.20;99.90;;;;;;4966944;28;20117;-62
2023/12/14 07:57:40;;;;;;;18.95;9.90;;;6.20;99.90;;;;;;4983213;28;20474;-61
2023/12/14 08:00:08;;;;;;;18.40;9.15;;;6.20;99.90;;;;;;4981745;28;20147;-61
2023/12/14 08:02:34;;;;;;;20.35;8.32;;;6.20;99.90;;;;;;4980024;28;20077;-62
2023/12/14 08:05:00;;;;;;;20.58;9.35;;;6.20;99.90;;;;;;4965296;28;20046;-61
2023/12/14 08:07:28;;;;;;;19.15;10.23;;;6.20;99.90;;;;;;4981644;28;20133;-61
2023/12/14 08:09:55;;;;;;;21.35;8.90;;;6.20;99.90;;;;;;4984140;28;20039;-62
2023/12/14 08:12:22;;;;;;;23.23;9.02;;;6.20;99.90;;;;;;4969501;28;20061;-61
2023/12/14 08:14:48;;;;;;;16.10;9.05;;;6.30;99.90;;;;;;4987243;28;20046;-61
2023/12/14 08:17:14;;;;;;;21.00;9.55;;;6.30;99.90;;;;;;4984407;28;20392;-61
2023/12/14 08:19:40;;;;;;;14.02;8.07;;;6.30;99.90;;;;;;4984295;28;20066;-61
2023/12/14 08:22:07;;;;;;;22.00;9.57;;;6.20;99.90;;;;;;4986551;28;20092;-61
2023/12/14 08:24:33;;;;;;;23.25;11.35;;;6.20;99.90;;;;;;4970111;28;20042;-62
2023/12/14 08:26:58;;;;;;;28.52;12.88;;;6.20;99.90;;;;;;4983247;28;20045;-61
2023/12/14 08:33:05;;;;;;;21.52;10.32;;;6.30;99.90;;;;;;4974397;28;20041;-61
2023/12/14 08:35:30;;;;;;;16.58;8.63;;;6.30;99.90;;;;;;4975922;28;20054;-61
2023/12/14 08:37:56;;;;;;;24.73;9.57;;;6.30;99.90;;;;;;4992533;28;20057;-61
2023/12/14 08:40:22;;;;;;;23.40;9.60;;;6.30;99.90;;;;;;4987200;28;20043;-62
2023/12/14 08:42:48;;;;;;;20.88;9.48;;;6.30;99.90;;;;;;4984404;28;20145;-62
2023/12/14 08:45:14;;;;;;;17.85;9.88;;;6.20;99.90;;;;;;4987104;28;20042;-61
2023/12/14 08:47:39;;;;;;;17.80;9.70;;;6.20;99.90;;;;;;4983787;28;20050;-61
2023/12/14 08:50:06;;;;;;;21.13;9.68;;;6.30;99.90;;;;;;4984787;28;20505;-61
2023/12/14 08:52:31;;;;;;;19.80;8.45;;;6.30;99.90;;;;;;4982484;28;20038;-62
2023/12/14 08:54:58;;;;;;;22.90;10.25;;;6.30;99.90;;;;;;4986587;28;20097;-62
2023/12/14 08:57:24;;;;;;;18.27;9.43;;;6.40;99.90;;;;;;4988255;28;20042;-62
2023/12/14 08:59:49;;;;;;;18.27;9.70;;;6.40;99.90;;;;;;4987663;28;20042;-61
2023/12/14 09:02:15;;;;;;;18.73;9.05;;;6.40;99.90;;;;;;4987348;28;20042;-61
2023/12/14 09:04:41;;;;;;;17.90;9.68;;;6.50;99.90;;;;;;4956110;28;20057;-61
2023/12/14 09:07:07;;;;;;;23.65;10.82;;;6.50;99.90;;;;;;4987567;28;20100;-62
2023/12/14 09:09:32;;;;;;;24.70;11.05;;;6.50;99.90;;;;;;4968494;28;20052;-62
2023/12/14 09:11:58;;;;;;;25.83;10.70;;;6.50;99.90;;;;;;4989598;28;20121;-62
2023/12/14 09:14:25;;;;;;;16.80;9.75;;;6.50;99.90;;;;;;4974406;28;20038;-61
2023/12/14 09:16:51;;;;;;;22.70;10.25;;;6.50;99.90;;;;;;4986444;28;20069;-61
2023/12/14 09:19:17;;;;;;;19.23;10.07;;;6.40;99.90;;;;;;4986583;28;20627;-62
2023/12/14 09:21:43;;;;;;;22.08;11.98;;;6.40;99.90;;;;;;4991502;28;20050;-62
2023/12/14 09:24:09;;;;;;;19.48;11.32;;;6.40;99.90;;;;;;4971710;28;20057;-62
2023/12/14 09:26:35;;;;;;;20.45;11.05;;;6.50;99.90;;;;;;4988035;28;20046;-62
2023/12/14 09:29:02;;;;;;;22.33;10.27;;;6.50;99.90;;;;;;4954554;28;20134;-62
2023/12/14 09:31:28;;;;;;;19.05;10.20;;;6.60;99.90;;;;;;4970301;28;20061;-61
2023/12/14 09:33:53;;;;;;;19.20;9.98;;;6.60;99.90;;;;;;4989548;28;20050;-61
2023/12/14 09:36:19;;;;;;;18.95;10.05;;;6.50;99.90;;;;;;4975220;28;20105;-62
2023/12/14 09:38:45;;;;;;;18.30;9.73;;;6.60;99.90;;;;;;4971906;28;20069;-62
2023/12/14 09:41:11;;;;;;;19.23;10.07;;;6.60;99.90;;;;;;4985306;28;20058;-60
2023/12/14 09:43:37;;;;;;;18.90;9.73;;;6.60;99.90;;;;;;4972842;28;20053;-62
2023/12/14 09:46:03;;;;;;;20.27;9.73;;;6.60;99.90;;;;;;4987938;28;20043;-62
2023/12/14 09:48:30;;;;;;;16.65;8.95;;;6.60;99.90;;;;;;4989490;28;20206;-62
2023/12/14 09:50:56;;;;;;;18.38;9.43;;;6.60;99.90;;;;;;4972007;28;20521;-62
2023/12/14 09:53:22;;;;;;;24.42;10.35;;;6.60;99.90;;;;;;4968690;28;20042;-62
2023/12/14 09:55:48;;;;;;;16.92;9.70;;;6.60;99.90;;;;;;4983956;28;20560;-62
2023/12/14 09:58:14;;;;;;;19.92;10.43;;;6.60;99.90;;;;;;4965398;28;20125;-61
2023/12/14 10:00:40;;;;;;;16.50;8.88;;;6.60;99.90;;;;;;4975579;28;20100;-61
2023/12/14 10:03:36;;;;;;;20.83;10.25;;;6.70;99.90;;;;;;4984494;28;20057;-61
2023/12/14 10:06:01;;;;;;;17.73;9.98;;;6.70;99.90;;;;;;4964239;28;20058;-62
2023/12/14 10:08:27;;;;;;;18.15;10.52;;;6.80;99.90;;;;;;4964975;28;20042;-61
2023/12/14 10:10:55;;;;;;;15.45;9.43;;;6.90;99.90;;;;;;4987953;28;20054;-62
2023/12/14 10:13:37;;;;;;;17.38;10.00;;;7.00;99.90;;;;;;4984614;28;20050;-62
2023/12/14 10:16:03;;;;;;;16.77;9.02;;;7.10;99.90;;;;;;4986670;28;20069;-62
2023/12/14 10:18:31;;;;;;;18.23;10.13;;;7.10;99.90;;;;;;4970180;28;20594;-62
2023/12/14 10:20:57;;;;;;;16.38;9.98;;;7.10;99.90;;;;;;4982403;28;20068;-61
2023/12/14 10:23:22;;;;;;;26.27;12.30;;;7.20;99.90;;;;;;4983328;28;20038;-62
2023/12/14 10:25:48;;;;;;;25.08;11.27;;;7.20;99.90;;;;;;4970723;28;20058;-62
2023/12/14 10:28:14;;;;;;;19.95;11.55;;;7.20;99.90;;;;;;4982061;28;20557;-62
2023/12/14 10:30:41;;;;;;;18.58;10.85;;;7.30;99.90;;;;;;4974511;28;20726;-61
2023/12/14 10:33:06;;;;;;;17.60;9.32;;;7.30;99.90;;;;;;4967268;28;20493;-62
2023/12/14 10:35:32;;;;;;;20.17;10.82;;;7.30;99.90;;;;;;4981759;28;20053;-62
2023/12/14 10:38:03;;;;;;;15.05;8.75;;;7.30;99.90;;;;;;4979632;28;20129;-62
2023/12/14 10:40:30;;;;;;;19.23;10.10;;;7.40;99.90;;;;;;4983213;28;20046;-62
2023/12/14 10:42:59;;;;;;;19.13;11.07;;;7.50;99.90;;;;;;4981532;28;20145;-61
2023/12/14 10:45:32;;;;;;;18.48;9.63;;;7.50;99.90;;;;;;4979579;28;20738;-61
2023/12/14 10:48:03;;;;;;;20.95;10.25;;;7.60;99.90;;;;;;4983594;28;20512;-62
2023/12/14 10:50:30;;;;;;;18.90;10.52;;;7.50;99.90;;;;;;4979350;28;20057;-62
2023/12/14 10:52:57;;;;;;;20.55;10.38;;;7.60;99.90;;;;;;4983804;28;20390;-62
2023/12/14 10:55:45;;;;;;;16.10;9.43;;;7.60;99.90;;;;;;4979249;28;20042;-62
2023/12/14 10:58:12;;;;;;;21.60;9.48;;;7.60;99.90;;;;;;4970459;28;20217;-62
2023/12/14 11:00:38;;;;;;;16.45;10.35;;;7.60;99.90;;;;;;4969691;28;20474;-62
2023/12/14 11:03:05;;;;;;;17.52;10.60;;;7.60;99.90;;;;;;4969561;28;20049;-62
2023/12/14 11:05:33;;;;;;;17.75;10.48;;;7.60;99.90;;;;;;4982232;28;20047;-62
2023/12/14 11:08:09;;;;;;;19.00;9.88;;;7.60;99.90;;;;;;4988307;28;20050;-62
2023/12/14 11:10:46;;;;;;;15.55;9.23;;;7.50;99.90;;;;;;4968154;28;20053;-63
2023/12/14 11:13:14;;;;;;;21.95;10.73;;;7.50;99.90;;;;;;4976794;28;20049;-62
2023/12/14 11:15:52;;;;;;;17.33;9.65;;;7.50;99.90;;;;;;4980235;28;20050;-62
2023/12/14 11:18:18;;;;;;;14.45;9.43;;;7.40;99.90;;;;;;4977920;28;20053;-62
2023/12/14 11:20:51;;;;;;;21.23;9.75;;;7.50;99.90;;;;;;4981043;28;20038;-62
2023/12/14 11:23:33;;;;;;;17.20;9.30;;;7.40;99.90;;;;;;4980853;28;20054;-62
2023/12/14 11:26:04;;;;;;;17.80;9.10;;;7.30;99.90;;;;;;4962923;28;20108;-62
2023/12/14 11:28:38;;;;;;;16.13;8.98;;;7.40;99.90;;;;;;4966169;28;20685;-62
2023/12/14 11:31:06;;;;;;;13.35;8.50;;;7.40;99.90;;;;;;4981002;28;20057;-62
2023/12/14 11:33:33;;;;;;;14.85;8.40;;;7.40;99.90;;;;;;4967555;28;20049;-62
2023/12/14 11:36:01;;;;;;;18.77;9.98;;;7.40;99.90;;;;;;4983982;28;20121;-62
2023/12/14 11:38:27;;;;;;;19.08;11.23;;;7.40;99.90;;;;;;4987720;28;20066;-62
2023/12/14 11:40:53;;;;;;;14.82;10.05;;;7.40;99.90;;;;;;4988293;28;20034;-62
2023/12/14 11:43:23;;;;;;;17.83;10.10;;;7.40;99.90;;;;;;4972612;28;20048;-62
2023/12/14 11:45:49;;;;;;;20.92;10.40;;;7.40;99.90;;;;;;4983665;28;20137;-62
2023/12/14 11:48:16;;;;;;;16.25;9.80;;;7.30;99.90;;;;;;4971452;28;20125;-62
2023/12/14 11:50:42;;;;;;;17.65;9.23;;;7.20;99.90;;;;;;4987503;28;20058;-62
2023/12/14 11:53:09;;;;;;;20.48;9.75;;;7.20;99.90;;;;;;4961334;28;20035;-62
2023/12/14 11:55:49;;;;;;;15.73;9.07;;;7.10;99.90;;;;;;4988653;28;20030;-62
2023/12/14 11:58:18;;;;;;;13.73;9.33;;;7.20;99.90;;;;;;4967887;28;20520;-62
2023/12/14 12:00:46;;;;;;;14.93;10.00;;;7.20;99.90;;;;;;4963160;28;20053;-62
2023/12/14 12:03:19;;;;;;;15.27;9.77;;;7.30;99.90;;;;;;4957693;28;20192;-62
2023/12/14 12:05:52;;;;;;;14.77;8.93;;;7.10;99.90;;;;;;4981559;28;20047;-62
2023/12/14 12:08:19;;;;;;;14.02;8.98;;;7.20;99.90;;;;;;4967896;28;20053;-62
2023/12/14 12:10:46;;;;;;;15.60;9.65;;;7.20;99.90;;;;;;4985927;28;20042;-62
2023/12/14 12:13:18;;;;;;;16.42;9.65;;;7.20;99.90;;;;;;4965307;28;20039;-62
2023/12/14 12:15:44;;;;;;;14.88;8.98;;;7.20;99.90;;;;;;4967070;28;20136;-62
2023/12/14 12:18:13;;;;;;;16.70;9.40;;;7.10;99.90;;;;;;4984342;28;20035;-62
2023/12/14 12:20:39;;;;;;;13.50;9.20;;;7.10;99.90;;;;;;4964918;28;20034;-62
2023/12/14 12:23:08;;;;;;;15.13;8.60;;;7.10;99.90;;;;;;4985579;28;20046;-62
2023/12/14 12:25:34;;;;;;;14.80;9.00;;;7.00;99.90;;;;;;4980589;28;20039;-62
2023/12/14 12:28:01;;;;;;;15.48;8.68;;;7.10;99.90;;;;;;4985902;28;20038;-62
2023/12/14 12:30:28;;;;;;;14.90;8.93;;;7.10;99.90;;;;;;4967028;28;20628;-62
2023/12/14 12:32:55;;;;;;;20.42;10.63;;;7.10;99.90;;;;;;4992401;28;20047;-62
2023/12/14 12:35:25;;;;;;;15.98;10.20;;;7.00;99.90;;;;;;4977529;28;20465;-62
2023/12/14 12:37:54;;;;;;;19.30;10.48;;;7.10;99.90;;;;;;4980899;28;20865;-61
2023/12/14 12:40:25;;;;;;;16.17;9.23;;;7.10;99.90;;;;;;4980962;28;20643;-61
2023/12/14 12:42:51;;;;;;;17.38;10.32;;;7.10;99.90;;;;;;4977279;28;20073;-62
2023/12/14 12:45:27;;;;;;;17.90;9.77;;;7.20;99.90;;;;;;4981425;28;20082;-62
2023/12/14 12:47:56;;;;;;;18.98;10.68;;;7.20;99.90;;;;;;4988945;28;20046;-62
2023/12/14 12:50:21;;;;;;;13.73;9.20;;;7.20;99.90;;;;;;4984477;28;20044;-62